CheckWX is a tool to help pilots better visualize weather data.  It is not intended as a substitute for an official pre-flight weather briefing.

12:39:22 UTC

KCQB METAR
Chandler Regional Airport
Chandler, Oklahoma, USA
Current

24 mins ago

KCQB 181215Z AUTO 01004KT 10SM CLR M07/M10 A3039 RMK AO2 T10721103
Observed
Feb-18 @ 12:15 UTC
Wind
  • 010° at 4 KTS
Visibility
10 SM
Flight Rules
VFR
Cloud Levels
  • Clear skies
Temperature
-7°C / 19°F
Dewpoint
-10°C / 14°F
Humidity
79%
Altimeter
30.39" Hg
Pressure
1029.11 hPa
Previous

44 mins ago

KCQB 181155Z AUTO 36005KT 10SM SCT100 M07/M10 A3037 RMK AO2 T10731103 11034 21074
Observed
Feb-18 @ 11:55 UTC
Wind
  • 360° at 5 KTS
Visibility
10 SM
Flight Rules
VFR
Cloud Levels
  • Scattered at 10,000' AGL
Temperature
-7°C / 19°F
Dewpoint
-10°C / 14°F
Humidity
79%
Altimeter
30.37" Hg
Pressure
1028.42 hPa
Previous

1 hour ago

KCQB 181135Z AUTO 35008KT 10SM SCT100 BKN120 M07/M10 A3037 RMK AO2 T10711099
Observed
Feb-18 @ 11:35 UTC
Wind
  • 350° at 8 KTS
Visibility
10 SM
Flight Rules
VFR
Cloud Levels
  • Scattered at 10,000' AGL
  • Broken at 12,000' AGL
Temperature
-7°C / 19°F
Dewpoint
-10°C / 14°F
Humidity
79%
Altimeter
30.37" Hg
Pressure
1028.42 hPa